createdAt,value
2019-03-30T00:00:37.695Z,0.00
2019-03-30T00:01:37.623Z,0.00
2019-03-30T00:02:37.567Z,0.00
2019-03-30T00:03:37.496Z,0.00
2019-03-30T00:04:37.431Z,0.00
2019-03-30T00:05:37.367Z,0.00
2019-03-30T00:06:37.299Z,0.00
2019-03-30T00:07:37.233Z,0.00
2019-03-30T00:08:37.168Z,0.00
2019-03-30T00:09:37.101Z,0.00
2019-03-30T00:10:37.035Z,0.00
2019-03-30T00:11:36.970Z,0.00
2019-03-30T00:12:36.907Z,0.00
2019-03-30T00:13:36.836Z,0.00
2019-03-30T00:14:36.781Z,0.00
2019-03-30T00:15:36.713Z,0.00
2019-03-30T00:16:36.639Z,0.00
2019-03-30T00:17:36.575Z,0.00
2019-03-30T00:18:36.508Z,0.00
2019-03-30T00:19:36.449Z,0.00
2019-03-30T00:20:36.377Z,0.00
2019-03-30T00:21:36.313Z,0.00
2019-03-30T00:22:36.245Z,0.00
2019-03-30T00:23:36.178Z,0.00
2019-03-30T00:24:36.112Z,0.00
2019-03-30T00:25:36.065Z,0.00
2019-03-30T00:26:35.978Z,0.00
2019-03-30T00:27:35.914Z,0.00
2019-03-30T00:28:35.849Z,0.00
2019-03-30T00:29:35.780Z,0.00
2019-03-30T00:30:35.716Z,0.00
2019-03-30T00:31:35.651Z,0.00
2019-03-30T00:32:35.585Z,0.00
2019-03-30T00:33:35.517Z,0.00
2019-03-30T00:34:35.451Z,0.00
2019-03-30T00:35:35.389Z,0.00
2019-03-30T00:36:35.323Z,0.00
2019-03-30T00:37:35.256Z,0.00
2019-03-30T00:38:35.187Z,0.00
2019-03-30T00:39:35.121Z,0.00
2019-03-30T00:40:35.056Z,0.00
2019-03-30T00:41:34.987Z,0.00
2019-03-30T00:42:34.923Z,0.00
2019-03-30T00:43:34.856Z,0.00
2019-03-30T00:44:34.789Z,0.00
2019-03-30T00:45:34.724Z,0.00
2019-03-30T00:46:34.659Z,0.00
2019-03-30T00:47:34.592Z,0.00
2019-03-30T00:48:34.526Z,0.00
2019-03-30T00:49:48.173Z,0.00
2019-03-30T00:50:34.391Z,0.00
2019-03-30T00:51:34.325Z,0.00
2019-03-30T00:52:34.264Z,0.00
2019-03-30T00:53:34.195Z,0.00
2019-03-30T00:54:34.126Z,0.00
2019-03-30T00:55:34.060Z,0.00
2019-03-30T00:56:33.993Z,0.00
2019-03-30T00:57:33.926Z,0.00
2019-03-30T00:58:33.875Z,0.00
2019-03-30T00:59:33.795Z,0.00
2019-03-30T01:00:33.731Z,0.00
2019-03-30T01:01:33.663Z,0.00
2019-03-30T01:02:33.596Z,0.00
2019-03-30T01:03:33.529Z,0.00
2019-03-30T01:04:33.465Z,0.00
2019-03-30T01:05:33.392Z,0.00
2019-03-30T01:06:33.335Z,0.00
2019-03-30T01:07:33.265Z,0.00
2019-03-30T01:08:33.199Z,0.00
2019-03-30T01:09:33.134Z,0.00
2019-03-30T01:10:33.065Z,0.00
2019-03-30T01:11:33.000Z,0.00
2019-03-30T01:12:32.934Z,0.00
2019-03-30T01:13:32.866Z,0.00
2019-03-30T01:14:32.800Z,0.00
2019-03-30T01:15:32.735Z,0.00
2019-03-30T01:16:32.667Z,0.00
2019-03-30T01:17:32.600Z,0.00
2019-03-30T01:18:32.536Z,0.00
2019-03-30T01:19:32.468Z,0.00
2019-03-30T01:20:32.443Z,0.00
2019-03-30T01:21:32.334Z,0.00
2019-03-30T01:22:32.271Z,0.00
2019-03-30T01:23:32.236Z,0.00
2019-03-30T01:24:32.137Z,0.00
2019-03-30T01:25:32.069Z,0.00
2019-03-30T01:26:32.004Z,0.00
2019-03-30T01:27:31.940Z,0.00
2019-03-30T01:28:31.874Z,0.00
2019-03-30T01:29:31.802Z,0.00
2019-03-30T01:30:31.737Z,0.00
2019-03-30T01:31:31.667Z,0.00
2019-03-30T01:32:34.831Z,0.00
2019-03-30T01:33:31.538Z,0.00
2019-03-30T01:34:31.475Z,0.00
2019-03-30T01:35:31.406Z,0.00
2019-03-30T01:36:31.342Z,0.00
2019-03-30T01:37:31.273Z,0.00
2019-03-30T01:38:31.206Z,0.00
2019-03-30T01:39:31.141Z,0.00
2019-03-30T01:40:31.075Z,0.00
2019-03-30T01:41:31.007Z,0.00
2019-03-30T01:42:30.940Z,0.00
2019-03-30T01:43:30.874Z,0.00
2019-03-30T01:44:30.808Z,0.00
2019-03-30T01:45:30.742Z,0.00
2019-03-30T01:46:30.675Z,0.00
2019-03-30T01:47:30.611Z,0.00
2019-03-30T01:48:30.544Z,0.00
2019-03-30T01:49:30.474Z,0.00
2019-03-30T01:50:30.409Z,0.00
2019-03-30T01:51:30.340Z,0.00
2019-03-30T01:52:30.277Z,0.00
2019-03-30T01:53:30.303Z,0.00
2019-03-30T01:54:30.147Z,0.00
2019-03-30T01:55:30.076Z,0.00
2019-03-30T01:56:30.011Z,0.00
2019-03-30T01:57:29.946Z,0.00
2019-03-30T01:58:29.877Z,0.00
2019-03-30T01:59:29.812Z,0.00
2019-03-30T02:00:29.741Z,0.00
2019-03-30T02:01:29.677Z,0.00
2019-03-30T02:02:29.610Z,0.00
2019-03-30T02:03:29.543Z,0.00
2019-03-30T02:04:29.478Z,0.00
2019-03-30T02:05:29.414Z,0.00
2019-03-30T02:06:29.345Z,0.00
2019-03-30T02:07:29.277Z,0.00
2019-03-30T02:08:29.213Z,0.00
2019-03-30T02:09:29.144Z,0.00
2019-03-30T02:10:29.079Z,0.00
2019-03-30T02:11:29.011Z,0.00
2019-03-30T02:12:28.946Z,0.00
2019-03-30T02:13:28.877Z,0.00
2019-03-30T02:14:28.813Z,0.00
2019-03-30T02:15:28.746Z,0.00
2019-03-30T02:16:28.678Z,0.00
2019-03-30T02:17:28.612Z,0.00
2019-03-30T02:18:28.546Z,0.00
2019-03-30T02:19:28.476Z,0.00
2019-03-30T02:20:30.897Z,0.00
2019-03-30T02:21:28.345Z,0.00
2019-03-30T02:22:28.284Z,0.00
2019-03-30T02:23:28.213Z,0.00
2019-03-30T02:24:28.148Z,0.00
2019-03-30T02:25:28.083Z,0.00
2019-03-30T02:26:28.012Z,0.00
2019-03-30T02:27:27.946Z,0.00
2019-03-30T02:28:27.879Z,0.00
2019-03-30T02:29:27.812Z,0.00
2019-03-30T02:30:27.746Z,0.00
2019-03-30T02:31:27.679Z,0.00
2019-03-30T02:32:27.613Z,0.00
2019-03-30T02:33:27.546Z,0.00
2019-03-30T02:34:27.480Z,0.00
2019-03-30T02:35:27.412Z,0.00
2019-03-30T02:36:27.346Z,0.00
2019-03-30T02:37:27.278Z,0.00
2019-03-30T02:38:27.245Z,0.00
2019-03-30T02:39:27.148Z,0.00
2019-03-30T02:40:27.078Z,0.00
2019-03-30T02:41:27.011Z,0.00
2019-03-30T02:42:26.946Z,0.00
2019-03-30T02:43:26.878Z,0.00
2019-03-30T02:44:26.812Z,0.00
2019-03-30T02:45:26.745Z,0.00
2019-03-30T02:46:26.678Z,0.00
2019-03-30T02:47:26.613Z,0.00
2019-03-30T02:48:26.554Z,0.00
2019-03-30T02:49:26.480Z,0.00
2019-03-30T02:50:26.409Z,0.00
2019-03-30T02:51:26.345Z,0.00
2019-03-30T02:52:26.277Z,0.00
2019-03-30T02:53:26.217Z,0.00
2019-03-30T02:54:26.147Z,0.00
2019-03-30T02:55:26.077Z,0.00
2019-03-30T02:56:26.011Z,0.00
2019-03-30T02:57:25.958Z,0.00
2019-03-30T02:58:25.878Z,0.00
2019-03-30T02:59:25.809Z,0.00
2019-03-30T03:00:25.749Z,0.00
2019-03-30T03:01:25.678Z,0.00
2019-03-30T03:02:25.610Z,0.00
2019-03-30T03:03:25.543Z,0.00
2019-03-30T03:04:25.483Z,0.00
2019-03-30T03:05:25.403Z,0.00
2019-03-30T03:06:25.340Z,0.00
2019-03-30T03:07:25.287Z,0.00
2019-03-30T03:08:25.209Z,0.00
2019-03-30T03:09:25.144Z,0.00
2019-03-30T03:10:25.073Z,0.00
2019-03-30T03:11:25.007Z,0.00
2019-03-30T03:12:24.940Z,0.00
2019-03-30T03:13:24.877Z,0.00
2019-03-30T03:14:24.817Z,0.00
2019-03-30T03:15:24.744Z,0.00
2019-03-30T03:16:27.280Z,0.00
2019-03-30T03:17:24.605Z,0.00
2019-03-30T03:18:24.540Z,0.00
2019-03-30T03:19:24.472Z,0.00
2019-03-30T03:20:24.414Z,0.00
2019-03-30T03:21:24.339Z,0.00
2019-03-30T03:22:24.274Z,0.00
2019-03-30T03:23:24.217Z,0.00
2019-03-30T03:24:24.137Z,0.00
2019-03-30T03:25:24.070Z,0.00
2019-03-30T03:26:24.022Z,0.00
2019-03-30T03:27:23.938Z,0.00
2019-03-30T03:28:23.872Z,0.00
2019-03-30T03:29:23.810Z,0.00
2019-03-30T03:30:23.765Z,0.00
2019-03-30T03:31:23.697Z,0.00
2019-03-30T03:32:23.627Z,0.00
2019-03-30T03:33:23.550Z,0.00
2019-03-30T03:34:23.468Z,0.00
2019-03-30T03:35:23.426Z,0.00
2019-03-30T03:36:23.335Z,0.00
2019-03-30T03:37:23.270Z,0.00
2019-03-30T03:38:23.206Z,0.00
2019-03-30T03:39:23.133Z,0.00
2019-03-30T03:40:23.068Z,0.00
2019-03-30T03:41:22.999Z,0.00
2019-03-30T03:42:22.934Z,0.00
2019-03-30T03:43:22.867Z,0.00
2019-03-30T03:44:22.798Z,0.00
2019-03-30T03:45:22.730Z,0.00
2019-03-30T03:46:22.666Z,0.00
2019-03-30T03:47:22.595Z,0.00
2019-03-30T03:48:22.548Z,0.00
2019-03-30T03:49:22.464Z,0.00
2019-03-30T03:50:22.398Z,0.00
2019-03-30T03:51:26.102Z,0.00
2019-03-30T03:52:22.264Z,0.00
2019-03-30T03:53:22.195Z,0.00
2019-03-30T03:54:22.129Z,0.00
2019-03-30T03:55:22.061Z,0.00
2019-03-30T03:56:22.130Z,0.00
2019-03-30T03:57:21.927Z,0.00
2019-03-30T03:58:21.862Z,0.00
2019-03-30T03:59:21.828Z,0.00
2019-03-30T04:00:21.729Z,0.00
2019-03-30T04:01:21.660Z,0.00
2019-03-30T04:02:21.595Z,0.00
2019-03-30T04:03:21.528Z,0.00
2019-03-30T04:04:21.460Z,0.00
2019-03-30T04:05:21.392Z,0.00
2019-03-30T04:06:21.324Z,0.00
2019-03-30T04:07:21.258Z,0.00
2019-03-30T04:08:21.192Z,0.00
2019-03-30T04:09:21.124Z,0.00
2019-03-30T04:10:21.055Z,0.00
2019-03-30T04:11:20.989Z,0.00
2019-03-30T04:12:20.924Z,0.00
2019-03-30T04:13:20.858Z,0.00
2019-03-30T04:14:20.789Z,0.00
2019-03-30T04:15:20.724Z,0.00
2019-03-30T04:16:20.656Z,0.00
2019-03-30T04:17:20.588Z,0.00
2019-03-30T04:18:20.537Z,0.00
2019-03-30T04:19:20.453Z,0.00
2019-03-30T04:20:20.387Z,0.00
2019-03-30T04:21:20.329Z,0.00
2019-03-30T04:22:20.255Z,0.00
2019-03-30T04:23:20.185Z,0.00
2019-03-30T04:24:20.132Z,0.00
2019-03-30T04:25:20.050Z,0.00
2019-03-30T04:26:19.984Z,0.00
2019-03-30T04:27:19.915Z,0.00
2019-03-30T04:28:19.850Z,0.00
2019-03-30T04:29:19.783Z,0.00
2019-03-30T04:30:19.715Z,0.00
2019-03-30T04:31:19.652Z,0.00
2019-03-30T04:32:19.586Z,0.00
2019-03-30T04:33:19.520Z,0.00
2019-03-30T04:34:19.448Z,0.00
2019-03-30T04:35:19.381Z,0.00
2019-03-30T04:36:19.316Z,0.00
2019-03-30T04:37:19.245Z,4.00
2019-03-30T04:38:19.177Z,4.00
2019-03-30T04:39:19.115Z,0.00
2019-03-30T04:40:19.157Z,4.00
2019-03-30T04:41:18.978Z,4.00
2019-03-30T04:42:18.909Z,4.00
2019-03-30T04:43:18.843Z,4.00
2019-03-30T04:44:18.779Z,4.00
2019-03-30T04:45:18.712Z,8.00
2019-03-30T04:46:18.643Z,8.00
2019-03-30T04:47:18.575Z,8.00
2019-03-30T04:48:18.508Z,8.00
2019-03-30T04:49:18.445Z,12.00
2019-03-30T04:50:18.373Z,12.00
2019-03-30T04:51:18.308Z,16.00
2019-03-30T04:52:18.240Z,16.00
2019-03-30T04:53:18.172Z,20.00
2019-03-30T04:54:18.110Z,24.00
2019-03-30T04:55:18.037Z,24.00
2019-03-30T04:56:17.976Z,28.00
2019-03-30T04:57:17.902Z,36.00
2019-03-30T04:58:17.837Z,36.00
2019-03-30T04:59:17.774Z,40.00
2019-03-30T05:00:17.703Z,48.00
2019-03-30T05:01:17.637Z,48.00
2019-03-30T05:02:17.570Z,56.00
2019-03-30T05:03:17.502Z,60.00
2019-03-30T05:04:17.435Z,68.00
2019-03-30T05:05:17.365Z,72.00
2019-03-30T05:06:17.300Z,84.00
2019-03-30T05:07:17.232Z,88.00
2019-03-30T05:08:17.165Z,96.00
2019-03-30T05:09:17.104Z,108.00
2019-03-30T05:10:17.032Z,116.00
2019-03-30T05:11:16.964Z,124.00
2019-03-30T05:12:16.897Z,136.00
2019-03-30T05:13:16.882Z,144.00
2019-03-30T05:14:16.757Z,156.00
2019-03-30T05:15:16.697Z,168.00
2019-03-30T05:16:16.628Z,180.00
2019-03-30T05:17:16.560Z,188.00
2019-03-30T05:18:16.492Z,200.00
2019-03-30T05:19:16.424Z,212.00
2019-03-30T05:20:16.359Z,220.00
2019-03-30T05:21:16.291Z,236.00
2019-03-30T05:22:16.734Z,252.00
2019-03-30T05:23:16.156Z,272.00
2019-03-30T05:24:16.093Z,288.00
2019-03-30T05:25:16.025Z,304.00
2019-03-30T05:26:15.955Z,316.00
2019-03-30T05:27:15.890Z,332.00
2019-03-30T05:28:15.861Z,332.00
2019-03-30T05:29:15.758Z,336.00
2019-03-30T05:30:15.687Z,348.00
2019-03-30T05:31:15.620Z,356.00
2019-03-30T05:32:15.552Z,376.00
2019-03-30T05:33:15.489Z,388.00
2019-03-30T05:34:15.414Z,400.00
2019-03-30T05:35:15.358Z,416.00
2019-03-30T05:36:15.281Z,424.00
2019-03-30T05:37:15.220Z,432.00
2019-03-30T05:38:15.151Z,436.00
2019-03-30T05:39:15.083Z,428.00
2019-03-30T05:40:15.015Z,416.00
2019-03-30T05:41:14.947Z,412.00
2019-03-30T05:42:14.881Z,428.00
2019-03-30T05:43:14.815Z,436.00
2019-03-30T05:44:14.749Z,464.00
2019-03-30T05:45:14.679Z,472.00
2019-03-30T05:46:14.614Z,492.00
2019-03-30T05:47:14.549Z,528.00
2019-03-30T05:48:14.477Z,548.00
2019-03-30T05:49:14.410Z,560.00
2019-03-30T05:50:14.342Z,552.00
2019-03-30T05:51:14.275Z,560.00
2019-03-30T05:52:25.741Z,592.00
2019-03-30T05:53:14.142Z,588.00
2019-03-30T05:54:14.075Z,612.00
2019-03-30T05:55:14.009Z,636.00
2019-03-30T05:56:13.940Z,648.00
2019-03-30T05:57:13.872Z,656.00
2019-03-30T05:58:13.807Z,668.00
2019-03-30T05:59:13.738Z,672.00
2019-03-30T06:00:13.675Z,680.00
2019-03-30T06:01:13.606Z,688.00
2019-03-30T06:02:13.537Z,684.00
2019-03-30T06:03:13.471Z,676.00
2019-03-30T06:04:13.404Z,648.00
2019-03-30T06:05:13.337Z,616.00
2019-03-30T06:06:13.270Z,616.00
2019-03-30T06:07:13.204Z,668.00
2019-03-30T06:08:13.138Z,672.00
2019-03-30T06:09:13.068Z,640.00
2019-03-30T06:10:13.001Z,676.00
2019-03-30T06:11:12.934Z,720.00
2019-03-30T06:12:12.868Z,736.00
2019-03-30T06:13:12.799Z,716.00
2019-03-30T06:14:12.733Z,672.00
2019-03-30T06:15:12.668Z,632.00
2019-03-30T06:16:12.600Z,620.00
2019-03-30T06:17:12.533Z,624.00
2019-03-30T06:18:12.464Z,644.00
2019-03-30T06:19:12.414Z,664.00
2019-03-30T06:20:12.337Z,688.00
2019-03-30T06:21:12.263Z,760.00
2019-03-30T06:22:12.197Z,788.00
2019-03-30T06:23:12.133Z,800.00
2019-03-30T06:24:12.063Z,832.00
2019-03-30T06:25:11.994Z,852.00
2019-03-30T06:26:11.930Z,888.00
2019-03-30T06:27:11.862Z,924.00
2019-03-30T06:28:11.799Z,916.00
2019-03-30T06:29:11.730Z,924.00
2019-03-30T06:30:11.665Z,948.00
2019-03-30T06:31:11.598Z,940.00
2019-03-30T06:32:11.532Z,896.00
2019-03-30T06:33:11.462Z,876.00
2019-03-30T06:34:11.395Z,876.00
2019-03-30T06:35:11.329Z,904.00
2019-03-30T06:36:11.260Z,936.00
2019-03-30T06:37:11.194Z,984.00
2019-03-30T06:38:11.128Z,1024.00
2019-03-30T06:39:11.151Z,1036.00
2019-03-30T06:40:10.993Z,1052.00
2019-03-30T06:41:10.927Z,1092.00
2019-03-30T06:42:10.861Z,1128.00
2019-03-30T06:43:10.793Z,1140.00
2019-03-30T06:44:10.732Z,1152.00
2019-03-30T06:45:10.662Z,1156.00
2019-03-30T06:46:10.594Z,1164.00
2019-03-30T06:47:10.528Z,1176.00
2019-03-30T06:48:10.461Z,1184.00
2019-03-30T06:49:10.394Z,1192.00
2019-03-30T06:50:10.331Z,1200.00
2019-03-30T06:51:10.261Z,1212.00
2019-03-30T06:52:10.200Z,1224.00
2019-03-30T06:53:10.128Z,1236.00
2019-03-30T06:54:10.063Z,1248.00
2019-03-30T06:55:09.998Z,1260.00
2019-03-30T06:56:09.930Z,1272.00
2019-03-30T06:57:09.863Z,1280.00
2019-03-30T06:58:09.799Z,1288.00
2019-03-30T06:59:09.733Z,1288.00
2019-03-30T07:00:09.664Z,1280.00
2019-03-30T07:01:09.595Z,1288.00
2019-03-30T07:02:09.530Z,1308.00
2019-03-30T07:03:09.465Z,1324.00
2019-03-30T07:04:11.282Z,1332.00
2019-03-30T07:05:09.335Z,1320.00
2019-03-30T07:06:09.264Z,1332.00
2019-03-30T07:07:09.198Z,1340.00
2019-03-30T07:08:09.133Z,1376.00
2019-03-30T07:09:09.067Z,1380.00
2019-03-30T07:10:08.999Z,1384.00
2019-03-30T07:11:20.566Z,1388.00
2019-03-30T07:12:08.876Z,1388.00
2019-03-30T07:13:08.802Z,1392.00
2019-03-30T07:14:08.737Z,1396.00
2019-03-30T07:15:08.670Z,1400.00
2019-03-30T07:16:08.605Z,1404.00
2019-03-30T07:17:08.540Z,1408.00
2019-03-30T07:18:08.472Z,1412.00
2019-03-30T07:19:08.408Z,1424.00
2019-03-30T07:20:08.340Z,1432.00
2019-03-30T07:21:08.276Z,1436.00
2019-03-30T07:22:08.209Z,1440.00
2019-03-30T07:23:12.404Z,1448.00
2019-03-30T07:24:08.076Z,1456.00
2019-03-30T07:25:08.011Z,1464.00
2019-03-30T07:26:07.945Z,1468.00
2019-03-30T07:27:07.879Z,1476.00
2019-03-30T07:28:07.875Z,1484.00
2019-03-30T07:29:07.747Z,1492.00
2019-03-30T07:30:07.682Z,1496.00
2019-03-30T07:31:07.620Z,1504.00
2019-03-30T07:32:07.551Z,1508.00
2019-03-30T07:33:07.486Z,1508.00
2019-03-30T07:34:07.421Z,1508.00
2019-03-30T07:35:07.356Z,1500.00
2019-03-30T07:36:07.289Z,1488.00
2019-03-30T07:37:07.224Z,1488.00
2019-03-30T07:38:07.159Z,1492.00
2019-03-30T07:39:07.092Z,1484.00
2019-03-30T07:40:07.027Z,1508.00
2019-03-30T07:41:06.966Z,1516.00
2019-03-30T07:42:06.896Z,1544.00
2019-03-30T07:43:06.830Z,1556.00
2019-03-30T07:44:06.765Z,1500.00
2019-03-30T07:45:06.698Z,1500.00
2019-03-30T07:46:06.633Z,1528.00
2019-03-30T07:47:06.570Z,1544.00
2019-03-30T07:48:06.504Z,1556.00
2019-03-30T07:49:06.439Z,1580.00
2019-03-30T07:50:06.380Z,1588.00
2019-03-30T07:51:06.307Z,1604.00
2019-03-30T07:52:06.250Z,1620.00
2019-03-30T07:53:06.175Z,1628.00
2019-03-30T07:54:06.112Z,1636.00
2019-03-30T07:55:06.045Z,1644.00
2019-03-30T07:56:08.756Z,1652.00
2019-03-30T07:57:16.543Z,1656.00
2019-03-30T07:58:05.886Z,1664.00
2019-03-30T07:59:05.786Z,1668.00
2019-03-30T08:00:05.724Z,1672.00
2019-03-30T08:01:05.656Z,1684.00
2019-03-30T08:02:05.592Z,1688.00
2019-03-30T08:03:05.526Z,1696.00
2019-03-30T08:04:05.462Z,1700.00
2019-03-30T08:05:05.475Z,1712.00
2019-03-30T08:06:05.331Z,1716.00
2019-03-30T08:07:05.266Z,1724.00
2019-03-30T08:08:05.207Z,1732.00
2019-03-30T08:09:05.138Z,1736.00
2019-03-30T08:10:05.072Z,1744.00
2019-03-30T08:11:05.007Z,1752.00
2019-03-30T08:12:04.943Z,1756.00
2019-03-30T08:13:04.878Z,1764.00
2019-03-30T08:14:04.814Z,1768.00
2019-03-30T08:15:04.749Z,1780.00
2019-03-30T08:16:04.689Z,1784.00
2019-03-30T08:17:04.620Z,1792.00
2019-03-30T08:18:04.555Z,1792.00
2019-03-30T08:19:04.489Z,1808.00
2019-03-30T08:20:04.426Z,1812.00
2019-03-30T08:21:04.364Z,1816.00
2019-03-30T08:22:04.297Z,1816.00
2019-03-30T08:23:04.229Z,1824.00
2019-03-30T08:24:04.169Z,1828.00
2019-03-30T08:25:04.105Z,1836.00
2019-03-30T08:26:04.039Z,1840.00
2019-03-30T08:27:03.981Z,1844.00
2019-03-30T08:28:03.911Z,1844.00
2019-03-30T08:29:03.845Z,1848.00
2019-03-30T08:30:03.782Z,1856.00
2019-03-30T08:31:03.720Z,1860.00
2019-03-30T08:32:03.737Z,1864.00
2019-03-30T08:33:03.589Z,1864.00
2019-03-30T08:34:03.529Z,1872.00
2019-03-30T08:35:03.464Z,1872.00
2019-03-30T08:36:03.399Z,1876.00
2019-03-30T08:37:03.331Z,1884.00
2019-03-30T08:38:03.276Z,1888.00
2019-03-30T08:39:03.203Z,1892.00
2019-03-30T08:40:03.143Z,1892.00
2019-03-30T08:41:03.079Z,1892.00
2019-03-30T08:42:03.011Z,1892.00
2019-03-30T08:43:02.951Z,1900.00
2019-03-30T08:44:02.885Z,1904.00
2019-03-30T08:45:02.820Z,1904.00
2019-03-30T08:46:02.755Z,1908.00
2019-03-30T08:47:02.696Z,1916.00
2019-03-30T08:48:02.630Z,1920.00
2019-03-30T08:49:02.566Z,1920.00
2019-03-30T08:50:02.500Z,1920.00
2019-03-30T08:51:02.441Z,1920.00
2019-03-30T08:52:02.372Z,1928.00
2019-03-30T08:53:02.309Z,1932.00
2019-03-30T08:54:02.245Z,1932.00
2019-03-30T08:55:02.184Z,1936.00
2019-03-30T08:56:02.122Z,1940.00
2019-03-30T08:57:02.058Z,1936.00
2019-03-30T08:58:01.990Z,1940.00
2019-03-30T08:59:01.928Z,1940.00
2019-03-30T09:00:01.865Z,1936.00
2019-03-30T09:01:01.799Z,1932.00
2019-03-30T09:02:01.736Z,1936.00
2019-03-30T09:03:01.679Z,1940.00
2019-03-30T09:04:01.611Z,1944.00
2019-03-30T09:05:01.553Z,1944.00
2019-03-30T09:06:01.483Z,1932.00
2019-03-30T09:07:01.422Z,1944.00
2019-03-30T09:08:01.355Z,1940.00
2019-03-30T09:09:01.292Z,1956.00
2019-03-30T09:10:01.231Z,1956.00
2019-03-30T09:11:01.168Z,1960.00
2019-03-30T09:12:01.105Z,1956.00
2019-03-30T09:13:01.040Z,1956.00
2019-03-30T09:14:00.975Z,1956.00
2019-03-30T09:15:00.912Z,1960.00
2019-03-30T09:16:00.851Z,1960.00
2019-03-30T09:17:00.787Z,1960.00
2019-03-30T09:18:00.735Z,1960.00
2019-03-30T09:19:00.664Z,1956.00
2019-03-30T09:20:00.624Z,1960.00
2019-03-30T09:21:00.531Z,1956.00
2019-03-30T09:22:00.469Z,1956.00
2019-03-30T09:23:00.406Z,1956.00
2019-03-30T09:24:09.334Z,1960.00
2019-03-30T09:25:00.515Z,1960.00
2019-03-30T09:26:00.219Z,1960.00
2019-03-30T09:27:00.155Z,1960.00
2019-03-30T09:28:00.091Z,1960.00
2019-03-30T09:29:00.109Z,1960.00
2019-03-30T09:29:59.963Z,1964.00
2019-03-30T09:30:59.902Z,1964.00
2019-03-30T09:32:13.315Z,1968.00
2019-03-30T09:32:59.779Z,1972.00
2019-03-30T09:33:59.711Z,1972.00
2019-03-30T09:34:59.649Z,1976.00
2019-03-30T09:35:59.588Z,1976.00
2019-03-30T09:36:59.528Z,1980.00
2019-03-30T09:37:59.454Z,1980.00
2019-03-30T09:38:59.398Z,1984.00
2019-03-30T09:39:59.337Z,1992.00
2019-03-30T09:40:59.271Z,1996.00
2019-03-30T09:41:59.212Z,2000.00
2019-03-30T09:42:59.151Z,2004.00
2019-03-30T09:43:59.084Z,2012.00
2019-03-30T09:44:59.026Z,2016.00
2019-03-30T09:45:58.957Z,2016.00
2019-03-30T09:46:58.899Z,2024.00
2019-03-30T09:47:58.842Z,2028.00
2019-03-30T09:48:58.767Z,2036.00
2019-03-30T09:50:02.143Z,2036.00
2019-03-30T09:50:58.645Z,2048.00
2019-03-30T09:51:58.581Z,2056.00
2019-03-30T09:52:58.518Z,2060.00
2019-03-30T09:53:58.465Z,2072.00
2019-03-30T09:54:58.396Z,2076.00
2019-03-30T09:55:58.334Z,2092.00
2019-03-30T09:56:58.270Z,2104.00
2019-03-30T09:57:58.206Z,2112.00
2019-03-30T09:58:58.144Z,2124.00
2019-03-30T09:59:58.082Z,2144.00
2019-03-30T10:00:58.019Z,2164.00
2019-03-30T10:01:57.955Z,2176.00
2019-03-30T10:02:57.895Z,2188.00
2019-03-30T10:03:57.833Z,2212.00
2019-03-30T10:04:57.773Z,2236.00
2019-03-30T10:05:57.707Z,2244.00
2019-03-30T10:06:57.647Z,2252.00
2019-03-30T10:07:57.588Z,2260.00
2019-03-30T10:08:57.519Z,2284.00
2019-03-30T10:09:57.460Z,2304.00
2019-03-30T10:10:57.399Z,2328.00
2019-03-30T10:11:57.334Z,2352.00
2019-03-30T10:12:57.273Z,2384.00
2019-03-30T10:13:57.209Z,2436.00
2019-03-30T10:14:57.150Z,2476.00
2019-03-30T10:15:57.098Z,2520.00
2019-03-30T10:16:57.023Z,2544.00
2019-03-30T10:17:56.963Z,2576.00
2019-03-30T10:18:56.900Z,2600.00
2019-03-30T10:20:04.383Z,2636.00
2019-03-30T10:20:56.777Z,2672.00
2019-03-30T10:21:56.720Z,2716.00
2019-03-30T10:22:56.655Z,2768.00
2019-03-30T10:23:56.593Z,2800.00
2019-03-30T10:24:58.433Z,2820.00
2019-03-30T10:25:56.467Z,2832.00
2019-03-30T10:26:56.405Z,2868.00
2019-03-30T10:27:56.346Z,2896.00
2019-03-30T10:28:56.281Z,2912.00
2019-03-30T10:29:56.223Z,2924.00
2019-03-30T10:30:56.158Z,2928.00
2019-03-30T10:31:56.113Z,2920.00
2019-03-30T10:32:56.034Z,2932.00
2019-03-30T10:33:55.976Z,2932.00
2019-03-30T10:34:55.912Z,2936.00
2019-03-30T10:35:55.849Z,2932.00
2019-03-30T10:36:55.790Z,2936.00
2019-03-30T10:37:55.727Z,2948.00
2019-03-30T10:38:55.666Z,2936.00
2019-03-30T10:39:55.608Z,2936.00
2019-03-30T10:40:55.541Z,2916.00
2019-03-30T10:41:55.482Z,2916.00
2019-03-30T10:42:55.421Z,2912.00
2019-03-30T10:43:55.355Z,2912.00
2019-03-30T10:44:55.303Z,2900.00
2019-03-30T10:45:55.235Z,2900.00
2019-03-30T10:46:55.174Z,2888.00
2019-03-30T10:47:55.113Z,2880.00
2019-03-30T10:48:55.051Z,2860.00
2019-03-30T10:49:54.992Z,2848.00
2019-03-30T10:50:54.940Z,2848.00
2019-03-30T10:51:54.868Z,2844.00
2019-03-30T10:52:54.806Z,2852.00
2019-03-30T10:53:54.747Z,2852.00
2019-03-30T10:54:54.684Z,2844.00
2019-03-30T10:55:54.621Z,2836.00
2019-03-30T10:56:54.563Z,2832.00
2019-03-30T10:57:54.569Z,2832.00
2019-03-30T10:58:54.442Z,2812.00
2019-03-30T10:59:54.384Z,2812.00
2019-03-30T11:00:54.318Z,2816.00
2019-03-30T11:01:54.259Z,2828.00
2019-03-30T11:02:54.198Z,2804.00
2019-03-30T11:03:54.151Z,2800.00
2019-03-30T11:04:54.076Z,2800.00
2019-03-30T11:05:54.014Z,2780.00
2019-03-30T11:06:53.954Z,2776.00
2019-03-30T11:07:53.891Z,2768.00
2019-03-30T11:08:53.830Z,2768.00
2019-03-30T11:09:53.770Z,2772.00
2019-03-30T11:10:53.708Z,2760.00
2019-03-30T11:11:53.648Z,2732.00
2019-03-30T11:12:53.585Z,2716.00
2019-03-30T11:13:53.525Z,2716.00
2019-03-30T11:14:53.466Z,2732.00
2019-03-30T11:15:53.404Z,2712.00
2019-03-30T11:16:53.344Z,2684.00
2019-03-30T11:17:53.281Z,2664.00
2019-03-30T11:18:53.220Z,2652.00
2019-03-30T11:19:53.167Z,2636.00
2019-03-30T11:20:53.101Z,2620.00
2019-03-30T11:21:53.038Z,2608.00
2019-03-30T11:22:52.980Z,2612.00
2019-03-30T11:23:52.919Z,2596.00
2019-03-30T11:25:06.238Z,2580.00
2019-03-30T11:25:52.792Z,2572.00
2019-03-30T11:26:52.730Z,2552.00
2019-03-30T11:27:52.670Z,2512.00
2019-03-30T11:28:52.610Z,2476.00
2019-03-30T11:29:52.552Z,2432.00
2019-03-30T11:30:52.487Z,2376.00
2019-03-30T11:31:52.437Z,2316.00
2019-03-30T11:32:52.371Z,2268.00
2019-03-30T11:33:52.301Z,2204.00
2019-03-30T11:34:52.242Z,2140.00
2019-03-30T11:35:52.180Z,2084.00
2019-03-30T11:36:52.120Z,2020.00
2019-03-30T11:37:52.059Z,1964.00
2019-03-30T11:38:51.998Z,1932.00
2019-03-30T11:39:51.935Z,1900.00
2019-03-30T11:40:51.874Z,1856.00
2019-03-30T11:41:51.813Z,1816.00
2019-03-30T11:42:51.753Z,1796.00
2019-03-30T11:43:51.691Z,1800.00
2019-03-30T11:44:51.632Z,1788.00
2019-03-30T11:45:51.568Z,1780.00
2019-03-30T11:46:51.505Z,1764.00
2019-03-30T11:47:51.446Z,1752.00
2019-03-30T11:48:51.386Z,1744.00
2019-03-30T11:49:51.324Z,1732.00
2019-03-30T11:50:51.263Z,1732.00
2019-03-30T11:51:51.201Z,1736.00
2019-03-30T11:52:51.138Z,1740.00
2019-03-30T11:53:51.078Z,1740.00
2019-03-30T11:54:51.019Z,1736.00
2019-03-30T11:55:50.957Z,1724.00
2019-03-30T11:56:50.894Z,1704.00
2019-03-30T11:57:50.836Z,1688.00
2019-03-30T11:58:50.772Z,1684.00
2019-03-30T11:59:50.711Z,1680.00
2019-03-30T12:00:50.648Z,1680.00
2019-03-30T12:01:50.589Z,1672.00
2019-03-30T12:02:50.528Z,1660.00
2019-03-30T12:03:50.466Z,1652.00
2019-03-30T12:04:50.405Z,1644.00
2019-03-30T12:05:50.349Z,1636.00
2019-03-30T12:06:51.868Z,1624.00
2019-03-30T12:07:50.226Z,1612.00
2019-03-30T12:08:50.160Z,1592.00
2019-03-30T12:09:50.099Z,1580.00
2019-03-30T12:10:50.038Z,1568.00
2019-03-30T12:11:49.984Z,1564.00
2019-03-30T12:12:49.915Z,1560.00
2019-03-30T12:13:49.852Z,1560.00
2019-03-30T12:14:49.793Z,1560.00
2019-03-30T12:15:49.731Z,1560.00
2019-03-30T12:16:49.671Z,1560.00
2019-03-30T12:17:49.610Z,1560.00
2019-03-30T12:18:49.546Z,1564.00
2019-03-30T12:19:49.486Z,1568.00
2019-03-30T12:20:49.427Z,1568.00
2019-03-30T12:21:49.363Z,1564.00
2019-03-30T12:22:49.303Z,1560.00
2019-03-30T12:23:49.246Z,1556.00
2019-03-30T12:24:49.179Z,1552.00
2019-03-30T12:25:49.120Z,1548.00
2019-03-30T12:26:49.067Z,1544.00
2019-03-30T12:27:48.996Z,1540.00
2019-03-30T12:28:48.937Z,1540.00
2019-03-30T12:29:48.880Z,1532.00
2019-03-30T12:30:48.815Z,1528.00
2019-03-30T12:31:48.754Z,1532.00
2019-03-30T12:32:48.691Z,1540.00
2019-03-30T12:33:48.630Z,1540.00
2019-03-30T12:34:48.582Z,1536.00